Time;durP1;ratioP1;P1;durP2;ratioP2;P2;SDS_P1;SDS_P2;PMS_P1;PMS_P2;Temp;Humidity;BMP_temperature;BMP_pressure;BME280_temperature;BME280_humidity;BME280_pressure;Samples;Min_cycle;Max_cycle;Signal;HPM_P1;HPM_P2
2022/09/13 00:01:56;;;;;;;5.37;4.70;;;;;;;;;;5035120;28;20713;-76
2022/09/13 00:04:22;;;;;;;4.77;4.23;;;;;;;;;;5043668;28;20239;-76
2022/09/13 00:06:48;;;;;;;5.23;4.73;;;;;;;;;;5030216;28;20590;-76
2022/09/13 00:09:14;;;;;;;5.10;4.60;;;;;;;;;;5035617;28;20522;-76
2022/09/13 00:11:40;;;;;;;7.07;4.60;;;;;;;;;;5041316;28;20593;-76
2022/09/13 00:14:06;;;;;;;6.60;4.80;;;;;;;;;;5041422;28;20204;-76
2022/09/13 00:16:32;;;;;;;4.63;4.00;;;;;;;;;;5035332;28;20198;-76
2022/09/13 00:18:59;;;;;;;5.17;4.43;;;;;;;;;;5041282;28;20414;-75
2022/09/13 00:21:26;;;;;;;5.00;4.50;;;;;;;;;;5035623;28;20190;-73
2022/09/13 00:23:53;;;;;;;5.30;4.23;;;;;;;;;;5016045;28;20234;-73
2022/09/13 00:26:21;;;;;;;4.40;4.00;;;;;;;;;;5037079;28;20205;-73
2022/09/13 00:28:50;;;;;;;4.97;3.73;;;;;;;;;;5040818;28;20191;-74
2022/09/13 00:31:16;;;;;;;4.60;4.10;;;;;;;;;;5017291;28;20182;-73
2022/09/13 00:33:42;;;;;;;4.93;4.37;;;;;;;;;;5034591;28;20178;-73
2022/09/13 00:36:10;;;;;;;5.27;4.40;;;;;;;;;;5039405;28;20210;-73
2022/09/13 00:38:37;;;;;;;5.70;4.30;;;;;;;;;;5038746;28;20220;-73
2022/09/13 00:41:08;;;;;;;5.90;4.70;;;;;;;;;;5037617;28;20199;-74
2022/09/13 00:43:52;;;;;;;5.10;4.70;;;;;;;;;;5036537;28;20270;-74
2022/09/13 00:46:36;;;;;;;6.97;4.27;;;;;;;;;;5041447;28;20216;-74
2022/09/13 00:49:12;;;;;;;4.77;4.20;;;;;;;;;;5026777;28;20190;-74
2022/09/13 00:51:39;;;;;;;5.90;4.30;;;;;;;;;;5041347;28;20213;-74
2022/09/13 00:54:05;;;;;;;4.57;4.17;;;;;;;;;;5045761;28;20231;-74
2022/09/13 00:56:38;;;;;;;5.90;4.27;;;;;;;;;;5008943;28;20342;-74
2022/09/13 00:59:07;;;;;;;4.77;4.33;;;;;;;;;;5038046;28;20681;-74
2022/09/13 01:01:37;;;;;;;4.93;4.53;;;;;;;;;;5043758;28;20724;-74
2022/09/13 01:04:03;;;;;;;5.03;4.53;;;;;;;;;;5040358;28;20186;-74
2022/09/13 01:06:32;;;;;;;8.63;4.80;;;;;;;;;;5039425;28;20266;-74
2022/09/13 01:09:02;;;;;;;5.73;4.97;;;;;;;;;;5041616;28;20178;-74
2022/09/13 01:11:44;;;;;;;5.17;4.50;;;;;;;;;;5041493;28;20239;-74
2022/09/13 01:14:11;;;;;;;5.93;4.73;;;;;;;;;;5036247;28;20181;-74
2022/09/13 01:16:37;;;;;;;6.07;4.80;;;;;;;;;;5045489;28;20201;-74
2022/09/13 01:19:03;;;;;;;4.33;4.00;;;;;;;;;;5043116;28;20499;-74
2022/09/13 01:21:30;;;;;;;6.87;4.30;;;;;;;;;;5040462;28;20727;-74
2022/09/13 01:23:58;;;;;;;4.90;4.43;;;;;;;;;;5034419;28;20183;-74
2022/09/13 01:26:34;;;;;;;4.80;3.90;;;;;;;;;;5008968;28;20211;-74
2022/09/13 01:29:09;;;;;;;4.73;3.77;;;;;;;;;;5043869;28;20272;-74
2022/09/13 01:31:51;;;;;;;4.83;4.20;;;;;;;;;;5040373;28;20193;-74
2022/09/13 01:34:27;;;;;;;4.83;4.33;;;;;;;;;;5036792;28;20262;-74
2022/09/13 01:37:20;;;;;;;6.23;5.37;;;;;;;;;;5024611;28;20281;-74
2022/09/13 01:40:04;;;;;;;6.60;5.03;;;;;;;;;;5037066;28;20255;-73
2022/09/13 01:42:57;;;;;;;6.53;4.63;;;;;;;;;;5035195;28;20192;-73
2022/09/13 01:45:47;;;;;;;5.77;4.73;;;;;;;;;;5030491;28;20221;-73
2022/09/13 01:48:13;;;;;;;5.37;4.83;;;;;;;;;;5044523;28;20690;-73
2022/09/13 01:50:42;;;;;;;6.47;4.90;;;;;;;;;;5027344;28;20193;-73
2022/09/13 01:53:21;;;;;;;5.00;4.50;;;;;;;;;;5039558;28;20206;-73
2022/09/13 01:56:06;;;;;;;5.60;5.10;;;;;;;;;;5040114;28;20210;-73
2022/09/13 01:58:50;;;;;;;5.30;4.80;;;;;;;;;;5043349;28;20267;-73
2022/09/13 02:01:31;;;;;;;5.23;4.73;;;;;;;;;;5037021;28;20439;-74
2022/09/13 02:04:11;;;;;;;5.53;5.03;;;;;;;;;;5037970;28;20212;-74
2022/09/13 02:06:52;;;;;;;5.70;4.43;;;;;;;;;;5040820;28;20209;-73
2022/09/13 02:09:20;;;;;;;6.27;4.70;;;;;;;;;;5035856;28;20305;-74
2022/09/13 02:11:48;;;;;;;6.17;4.90;;;;;;;;;;5042372;28;20213;-73
2022/09/13 02:14:20;;;;;;;7.53;5.07;;;;;;;;;;5042334;28;20194;-73
2022/09/13 02:16:49;;;;;;;8.50;5.50;;;;;;;;;;5024281;28;20206;-73
2022/09/13 02:19:36;;;;;;;6.80;5.20;;;;;;;;;;5018713;28;20191;-73
2022/09/13 02:22:02;;;;;;;5.93;5.33;;;;;;;;;;5034113;28;20175;-73
2022/09/13 02:24:30;;;;;;;6.07;5.13;;;;;;;;;;5041994;28;20530;-73
2022/09/13 02:26:57;;;;;;;8.03;5.70;;;;;;;;;;5041432;28;20209;-73
2022/09/13 02:29:24;;;;;;;6.67;5.30;;;;;;;;;;5034474;28;20279;-73
2022/09/13 02:32:09;;;;;;;6.17;4.40;;;;;;;;;;5038649;28;20537;-73
2022/09/13 02:34:40;;;;;;;6.53;5.93;;;;;;;;;;5037432;28;20217;-73
2022/09/13 02:37:07;;;;;;;6.03;5.40;;;;;;;;;;5022495;28;20673;-73
2022/09/13 02:39:35;;;;;;;7.33;5.50;;;;;;;;;;5024921;28;20222;-73
2022/09/13 02:42:12;;;;;;;6.00;5.40;;;;;;;;;;5036535;28;20187;-73
2022/09/13 02:44:41;;;;;;;6.50;5.77;;;;;;;;;;5038708;28;20243;-73
2022/09/13 02:47:26;;;;;;;6.80;5.37;;;;;;;;;;5039918;28;20205;-73
2022/09/13 02:50:11;;;;;;;5.43;4.93;;;;;;;;;;5022189;28;20834;-73
2022/09/13 02:52:56;;;;;;;7.13;5.30;;;;;;;;;;5039911;28;20175;-73
2022/09/13 02:55:30;;;;;;;5.47;4.80;;;;;;;;;;5039587;28;20190;-73
2022/09/13 02:57:56;;;;;;;6.57;5.23;;;;;;;;;;5024081;28;20217;-73
2022/09/13 03:00:22;;;;;;;6.80;4.77;;;;;;;;;;5035875;28;20633;-73
2022/09/13 03:02:49;;;;;;;5.77;4.70;;;;;;;;;;5040096;28;20724;-73
2022/09/13 03:05:16;;;;;;;7.17;4.80;;;;;;;;;;5036946;28;20196;-73
2022/09/13 03:07:43;;;;;;;6.10;4.90;;;;;;;;;;5042718;28;20719;-73
2022/09/13 03:10:11;;;;;;;5.37;4.87;;;;;;;;;;5038928;28;20179;-73
2022/09/13 03:13:15;;;;;;;5.83;4.90;;;;;;;;;;5039531;28;20684;-73
2022/09/13 03:15:55;;;;;;;5.50;4.77;;;;;;;;;;4998565;28;20745;-73
2022/09/13 03:18:29;;;;;;;5.17;4.27;;;;;;;;;;4996940;28;20753;-73
2022/09/13 03:21:01;;;;;;;8.40;4.70;;;;;;;;;;5021632;28;20182;-73
2022/09/13 03:23:35;;;;;;;6.13;5.50;;;;;;;;;;5044335;28;20178;-73
2022/09/13 03:26:10;;;;;;;6.47;5.03;;;;;;;;;;5032696;28;20233;-73
2022/09/13 03:28:50;;;;;;;5.70;4.73;;;;;;;;;;5027516;28;20186;-73
2022/09/13 03:31:29;;;;;;;4.90;4.40;;;;;;;;;;5019014;28;20224;-73
2022/09/13 03:34:04;;;;;;;4.90;4.40;;;;;;;;;;5038822;28;20629;-73
2022/09/13 03:36:35;;;;;;;4.80;4.30;;;;;;;;;;5039072;28;20244;-73
2022/09/13 03:39:26;;;;;;;4.70;4.30;;;;;;;;;;5040528;28;20294;-74
2022/09/13 03:41:56;;;;;;;4.83;3.87;;;;;;;;;;5024569;28;20182;-73
2022/09/13 03:44:23;;;;;;;3.97;3.67;;;;;;;;;;5040135;28;20835;-74
2022/09/13 03:46:52;;;;;;;5.07;4.03;;;;;;;;;;5023197;28;20761;-73
2022/09/13 03:49:19;;;;;;;7.97;5.30;;;;;;;;;;5042840;28;20190;-73
2022/09/13 03:51:47;;;;;;;5.90;5.37;;;;;;;;;;5034027;28;20197;-73
2022/09/13 03:54:21;;;;;;;5.90;5.30;;;;;;;;;;5041799;28;20194;-73
2022/09/13 03:57:07;;;;;;;5.63;5.13;;;;;;;;;;5024948;28;20244;-73
2022/09/13 03:59:35;;;;;;;5.50;5.00;;;;;;;;;;5043154;28;20273;-73
2022/09/13 04:02:01;;;;;;;6.97;5.10;;;;;;;;;;5037135;28;20191;-73
2022/09/13 04:04:28;;;;;;;6.90;4.80;;;;;;;;;;5040308;28;20599;-74
2022/09/13 04:06:55;;;;;;;5.10;4.70;;;;;;;;;;5035631;28;20233;-73
2022/09/13 04:09:22;;;;;;;6.10;5.10;;;;;;;;;;5042830;28;20190;-73
2022/09/13 04:11:48;;;;;;;6.57;5.50;;;;;;;;;;5044233;28;20323;-73
2022/09/13 04:14:15;;;;;;;5.93;5.30;;;;;;;;;;5036253;28;20544;-73
2022/09/13 04:16:41;;;;;;;5.10;4.67;;;;;;;;;;5044318;28;20633;-73
2022/09/13 04:19:07;;;;;;;5.47;4.97;;;;;;;;;;5044084;28;20208;-73
2022/09/13 04:21:34;;;;;;;6.10;5.50;;;;;;;;;;5040162;28;20308;-73
2022/09/13 04:24:00;;;;;;;5.60;5.00;;;;;;;;;;5028501;28;20344;-73
2022/09/13 04:26:26;;;;;;;5.30;4.53;;;;;;;;;;5037087;28;20637;-73
2022/09/13 04:28:53;;;;;;;7.50;5.07;;;;;;;;;;5042578;28;20182;-74
2022/09/13 04:31:19;;;;;;;5.30;4.70;;;;;;;;;;5041985;28;20499;-73
2022/09/13 04:33:45;;;;;;;4.60;4.20;;;;;;;;;;5038539;28;20190;-73
2022/09/13 04:36:11;;;;;;;5.07;4.43;;;;;;;;;;5044776;28;20595;-73
2022/09/13 04:38:37;;;;;;;5.50;5.00;;;;;;;;;;5012076;28;20259;-73
2022/09/13 04:41:04;;;;;;;5.30;4.80;;;;;;;;;;5015665;28;20187;-73
2022/09/13 04:43:30;;;;;;;6.03;4.17;;;;;;;;;;5042410;28;20166;-73
2022/09/13 04:46:00;;;;;;;5.88;5.28;;;;;;;;;;5041654;28;21031;-74
2022/09/13 04:48:26;;;;;;;6.18;5.05;;;;;;;;;;5043400;28;20887;-74
2022/09/13 04:50:52;;;;;;;5.80;4.70;;;;;;;;;;5041325;28;20233;-73
2022/09/13 04:53:18;;;;;;;7.00;4.97;;;;;;;;;;5042113;28;20217;-73
2022/09/13 04:55:44;;;;;;;6.23;4.90;;;;;;;;;;5045449;28;20249;-73
2022/09/13 04:58:10;;;;;;;5.20;4.70;;;;;;;;;;5043112;28;20301;-73
2022/09/13 05:00:36;;;;;;;5.83;4.80;;;;;;;;;;5042940;28;20258;-74
2022/09/13 05:03:03;;;;;;;5.70;5.03;;;;;;;;;;5027085;28;20205;-74
2022/09/13 05:05:31;;;;;;;5.73;5.00;;;;;;;;;;5043434;28;20182;-74
2022/09/13 05:07:57;;;;;;;5.33;4.50;;;;;;;;;;5020003;28;20482;-74
2022/09/13 05:10:23;;;;;;;7.13;4.90;;;;;;;;;;5042689;28;20194;-74
2022/09/13 05:12:49;;;;;;;6.23;4.73;;;;;;;;;;5043229;28;20186;-74
2022/09/13 05:15:16;;;;;;;5.87;4.77;;;;;;;;;;5023536;28;20651;-74
2022/09/13 05:17:42;;;;;;;5.77;5.17;;;;;;;;;;5043220;28;20206;-74
2022/09/13 05:20:08;;;;;;;4.77;4.37;;;;;;;;;;5043273;28;20174;-74
2022/09/13 05:22:34;;;;;;;5.57;4.97;;;;;;;;;;5028514;28;20185;-77
2022/09/13 05:25:00;;;;;;;5.50;4.93;;;;;;;;;;5045243;28;20188;-77
2022/09/13 05:27:26;;;;;;;4.97;4.47;;;;;;;;;;5046684;28;20848;-78
2022/09/13 05:29:53;;;;;;;5.37;4.70;;;;;;;;;;5026596;28;20658;-78
2022/09/13 05:32:19;;;;;;;5.87;4.63;;;;;;;;;;5039935;28;20574;-79
2022/09/13 05:34:46;;;;;;;7.03;4.83;;;;;;;;;;5027148;28;20195;-79
2022/09/13 05:37:13;;;;;;;5.73;4.70;;;;;;;;;;5039322;28;20809;-79
2022/09/13 05:39:39;;;;;;;6.50;4.90;;;;;;;;;;5041989;28;20194;-79
2022/09/13 05:42:05;;;;;;;6.33;5.33;;;;;;;;;;5026271;28;20205;-79
2022/09/13 05:44:31;;;;;;;5.63;5.10;;;;;;;;;;5039450;28;20205;-83
2022/09/13 05:46:57;;;;;;;6.57;5.10;;;;;;;;;;5028596;28;20255;-77
2022/09/13 05:49:23;;;;;;;4.93;4.43;;;;;;;;;;5042686;28;20220;-77
2022/09/13 05:51:50;;;;;;;6.33;5.00;;;;;;;;;;5017092;28;20533;-76
2022/09/13 05:54:16;;;;;;;5.97;4.90;;;;;;;;;;5018332;28;20235;-76
2022/09/13 05:56:42;;;;;;;5.30;4.60;;;;;;;;;;5041659;28;20213;-76
2022/09/13 05:59:11;;;;;;;5.50;4.67;;;;;;;;;;5036982;28;20205;-77
2022/09/13 06:01:37;;;;;;;7.87;4.67;;;;;;;;;;5036396;28;20256;-76
2022/09/13 06:04:03;;;;;;;8.50;5.10;;;;;;;;;;5002779;28;20206;-76
2022/09/13 06:06:30;;;;;;;6.67;4.67;;;;;;;;;;5017564;28;20194;-76
2022/09/13 06:08:56;;;;;;;7.50;4.97;;;;;;;;;;5036152;28;20218;-76
2022/09/13 06:11:24;;;;;;;7.27;5.73;;;;;;;;;;5035351;28;20280;-76
2022/09/13 06:13:50;;;;;;;5.13;4.63;;;;;;;;;;5033574;28;20201;-76
2022/09/13 06:16:17;;;;;;;7.27;5.00;;;;;;;;;;5018444;28;20209;-76
2022/09/13 06:18:43;;;;;;;5.77;4.57;;;;;;;;;;5037743;28;20653;-76
2022/09/13 06:21:11;;;;;;;7.17;4.63;;;;;;;;;;5035533;28;20272;-76
2022/09/13 06:23:39;;;;;;;6.03;5.00;;;;;;;;;;5039463;28;20232;-75
2022/09/13 06:26:09;;;;;;;6.50;5.43;;;;;;;;;;5039654;28;20568;-76
2022/09/13 06:28:36;;;;;;;5.80;4.67;;;;;;;;;;5039642;28;21247;-76
2022/09/13 06:31:05;;;;;;;6.73;5.10;;;;;;;;;;5041995;28;20648;-76
2022/09/13 06:33:32;;;;;;;6.37;4.50;;;;;;;;;;5042662;28;20212;-76
2022/09/13 06:36:03;;;;;;;5.20;4.60;;;;;;;;;;5026092;28;20219;-76
2022/09/13 06:38:29;;;;;;;5.70;4.70;;;;;;;;;;5026625;28;20198;-76
2022/09/13 06:41:03;;;;;;;6.60;4.30;;;;;;;;;;5021513;28;20182;-76
2022/09/13 06:43:29;;;;;;;5.60;4.70;;;;;;;;;;5032223;28;20188;-76
2022/09/13 06:45:59;;;;;;;6.50;4.53;;;;;;;;;;5040456;28;20971;-76
2022/09/13 06:48:25;;;;;;;7.60;5.50;;;;;;;;;;5046882;28;20681;-76
2022/09/13 06:50:51;;;;;;;6.30;4.90;;;;;;;;;;5025139;28;20186;-76
2022/09/13 06:53:17;;;;;;;6.80;4.93;;;;;;;;;;5024035;28;20182;-76
2022/09/13 06:55:43;;;;;;;8.00;4.83;;;;;;;;;;5026545;28;20712;-76
2022/09/13 06:58:09;;;;;;;5.70;5.10;;;;;;;;;;5037476;28;20201;-76
2022/09/13 07:00:35;;;;;;;7.03;4.80;;;;;;;;;;5038685;28;20217;-76
2022/09/13 07:03:02;;;;;;;7.00;5.20;;;;;;;;;;5039699;28;20550;-76
2022/09/13 07:05:28;;;;;;;7.73;5.40;;;;;;;;;;5037709;28;20676;-76
2022/09/13 07:07:54;;;;;;;5.70;5.20;;;;;;;;;;5039478;28;20289;-76
2022/09/13 07:10:21;;;;;;;6.90;5.30;;;;;;;;;;5036452;28;20228;-76
2022/09/13 07:12:47;;;;;;;6.40;5.27;;;;;;;;;;5038988;28;20728;-76
2022/09/13 07:15:13;;;;;;;8.27;5.47;;;;;;;;;;5026792;28;20221;-76
2022/09/13 07:17:39;;;;;;;5.67;5.07;;;;;;;;;;5041727;28;20597;-76
2022/09/13 07:20:06;;;;;;;7.23;5.80;;;;;;;;;;5038066;28;20185;-76
2022/09/13 07:22:33;;;;;;;6.20;4.90;;;;;;;;;;5036993;28;20170;-76
2022/09/13 07:25:00;;;;;;;6.53;5.50;;;;;;;;;;5039442;28;20209;-76
2022/09/13 07:27:26;;;;;;;7.00;5.30;;;;;;;;;;5035512;28;20292;-76
2022/09/13 07:29:52;;;;;;;6.67;5.97;;;;;;;;;;5042382;28;20177;-77
2022/09/13 07:32:19;;;;;;;6.57;5.97;;;;;;;;;;5041537;28;20233;-76
2022/09/13 07:34:45;;;;;;;9.27;6.00;;;;;;;;;;5035640;28;20221;-76
2022/09/13 07:37:11;;;;;;;7.80;6.30;;;;;;;;;;5033693;28;20661;-76
2022/09/13 07:39:37;;;;;;;6.67;5.83;;;;;;;;;;5037559;28;20178;-76
2022/09/13 07:42:03;;;;;;;7.40;5.97;;;;;;;;;;5034174;28;20199;-76
2022/09/13 07:44:29;;;;;;;6.93;6.20;;;;;;;;;;5038818;28;20174;-76
2022/09/13 07:46:55;;;;;;;6.50;5.73;;;;;;;;;;5038199;28;20534;-76
2022/09/13 07:49:22;;;;;;;7.93;6.30;;;;;;;;;;5038429;28;20247;-75
2022/09/13 07:51:50;;;;;;;8.73;6.17;;;;;;;;;;5017337;28;20186;-75
2022/09/13 07:54:17;;;;;;;7.97;5.80;;;;;;;;;;5034776;28;20194;-75
2022/09/13 07:56:44;;;;;;;6.73;5.47;;;;;;;;;;5017089;28;20271;-75
2022/09/13 07:59:12;;;;;;;6.97;5.57;;;;;;;;;;5037149;28;20218;-75
2022/09/13 08:01:41;;;;;;;6.60;5.83;;;;;;;;;;5034023;28;20181;-75
2022/09/13 08:04:09;;;;;;;5.97;5.37;;;;;;;;;;5040004;28;20190;-76
2022/09/13 08:06:36;;;;;;;7.93;5.50;;;;;;;;;;5022085;28;20225;-76
2022/09/13 08:09:02;;;;;;;7.53;5.50;;;;;;;;;;5040423;28;20203;-76
2022/09/13 08:11:33;;;;;;;7.30;5.50;;;;;;;;;;5040324;28;20576;-76
2022/09/13 08:14:01;;;;;;;10.03;6.30;;;;;;;;;;5019144;28;20285;-76
2022/09/13 08:16:27;;;;;;;7.77;5.90;;;;;;;;;;5039362;28;20221;-76
2022/09/13 08:18:54;;;;;;;6.37;5.77;;;;;;;;;;5042104;28;20201;-76
2022/09/13 08:21:21;;;;;;;5.77;4.93;;;;;;;;;;5042595;28;20228;-76
2022/09/13 08:23:47;;;;;;;7.97;6.25;;;;;;;;;;5040631;28;20423;-76
2022/09/13 08:26:14;;;;;;;7.40;5.90;;;;;;;;;;5042245;28;20225;-76
2022/09/13 08:28:41;;;;;;;6.17;5.37;;;;;;;;;;5039367;28;20507;-76
2022/09/13 08:31:09;;;;;;;6.20;5.37;;;;;;;;;;5026477;28;20332;-78
2022/09/13 08:33:36;;;;;;;7.90;5.70;;;;;;;;;;5039828;28;20698;-76
2022/09/13 08:36:03;;;;;;;6.00;5.40;;;;;;;;;;5037966;28;20216;-77
2022/09/13 08:38:29;;;;;;;6.50;5.80;;;;;;;;;;5025082;28;20201;-76
2022/09/13 08:40:58;;;;;;;6.63;5.70;;;;;;;;;;5033950;28;20218;-76
2022/09/13 08:43:31;;;;;;;11.07;8.03;;;;;;;;;;5018545;28;20556;-76
2022/09/13 08:46:09;;;;;;;11.63;9.23;;;;;;;;;;5026607;28;20225;-76
2022/09/13 08:48:36;;;;;;;18.07;12.13;;;;;;;;;;5023806;28;20264;-76
2022/09/13 08:51:04;;;;;;;12.37;9.53;;;;;;;;;;5036867;28;20204;-76
2022/09/13 08:53:31;;;;;;;8.67;7.23;;;;;;;;;;5041004;28;20202;-76
2022/09/13 08:56:09;;;;;;;8.37;6.67;;;;;;;;;;5036546;28;20649;-76
2022/09/13 08:58:54;;;;;;;10.27;7.10;;;;;;;;;;5041180;28;20216;-76
2022/09/13 09:01:26;;;;;;;8.80;6.30;;;;;;;;;;5040213;28;20274;-76
2022/09/13 09:03:58;;;;;;;13.00;7.00;;;;;;;;;;5042050;28;20186;-76
2022/09/13 09:06:28;;;;;;;9.10;6.60;;;;;;;;;;5037018;28;20213;-76
2022/09/13 09:09:18;;;;;;;6.90;5.93;;;;;;;;;;5045305;28;20190;-77
2022/09/13 09:11:53;;;;;;;6.10;5.50;;;;;;;;;;5040790;28;20190;-75
2022/09/13 09:14:19;;;;;;;5.30;4.77;;;;;;;;;;5040318;28;20189;-75
2022/09/13 09:16:47;;;;;;;8.33;5.70;;;;;;;;;;5045939;28;20205;-76
2022/09/13 09:19:14;;;;;;;8.57;6.10;;;;;;;;;;5012633;28;20217;-77
2022/09/13 09:21:41;;;;;;;9.60;5.73;;;;;;;;;;5040393;28;20201;-76
2022/09/13 09:24:10;;;;;;;6.57;5.83;;;;;;;;;;5041728;28;20622;-75
2022/09/13 09:26:37;;;;;;;5.90;5.30;;;;;;;;;;5035513;28;20212;-76
2022/09/13 09:29:15;;;;;;;5.90;5.07;;;;;;;;;;5037918;28;20179;-75
2022/09/13 09:31:58;;;;;;;7.57;5.03;;;;;;;;;;5038741;28;20814;-77
2022/09/13 09:34:26;;;;;;;6.20;4.60;;;;;;;;;;5045012;28;20256;-77
2022/09/13 09:36:58;;;;;;;7.33;5.00;;;;;;;;;;5045952;28;20305;-78
2022/09/13 09:39:26;;;;;;;5.80;5.20;;;;;;;;;;5039144;28;20252;-77
2022/09/13 09:41:56;;;;;;;6.63;5.17;;;;;;;;;;5041677;28;20205;-77
2022/09/13 09:44:26;;;;;;;5.83;4.67;;;;;;;;;;5042733;28;20206;-77
2022/09/13 09:47:13;;;;;;;5.57;4.50;;;;;;;;;;5021122;28;20221;-77
2022/09/13 09:52:38;;;;;;;6.53;5.37;;;;;;;;;;5045377;28;20657;-76
2022/09/13 09:55:21;;;;;;;7.40;4.60;;;;;;;;;;5041918;28;20178;-76
2022/09/13 09:57:54;;;;;;;6.73;4.73;;;;;;;;;;5047695;28;20226;-77
2022/09/13 10:00:22;;;;;;;8.67;5.60;;;;;;;;;;5032242;28;20178;-77
2022/09/13 10:02:50;;;;;;;9.40;6.23;;;;;;;;;;5028595;28;20179;-78
2022/09/13 10:05:20;;;;;;;7.63;5.57;;;;;;;;;;5042707;28;20178;-75
2022/09/13 10:08:04;;;;;;;6.43;5.57;;;;;;;;;;5013120;28;20190;-75
2022/09/13 10:10:36;;;;;;;6.87;6.00;;;;;;;;;;5046441;28;20185;-78
2022/09/13 10:13:04;;;;;;;11.83;5.47;;;;;;;;;;5038375;28;20668;-75
2022/09/13 10:15:34;;;;;;;6.33;5.30;;;;;;;;;;5039050;28;20197;-75
2022/09/13 10:18:02;;;;;;;8.10;6.37;;;;;;;;;;5045351;28;20202;-78
2022/09/13 10:20:28;;;;;;;6.57;5.97;;;;;;;;;;5039505;28;20188;-75
2022/09/13 10:23:10;;;;;;;6.53;5.83;;;;;;;;;;5045972;28;20181;-75
2022/09/13 10:25:37;;;;;;;5.70;5.10;;;;;;;;;;5008530;28;20202;-74
2022/09/13 10:28:04;;;;;;;8.07;5.93;;;;;;;;;;5042264;28;20186;-71
2022/09/13 10:30:37;;;;;;;7.47;5.60;;;;;;;;;;5042465;28;20192;-74
2022/09/13 10:33:03;;;;;;;5.53;4.90;;;;;;;;;;5043933;28;20191;-75
2022/09/13 10:35:30;;;;;;;8.60;5.60;;;;;;;;;;5034502;28;20178;-77
2022/09/13 10:37:56;;;;;;;5.83;5.20;;;;;;;;;;5043831;28;20559;-76
2022/09/13 10:40:29;;;;;;;7.03;6.00;;;;;;;;;;5040183;28;20217;-76
2022/09/13 10:43:00;;;;;;;7.37;4.80;;;;;;;;;;5041162;28;20459;-76
2022/09/13 10:45:28;;;;;;;6.60;5.40;;;;;;;;;;5041769;28;20186;-76
2022/09/13 10:47:58;;;;;;;6.47;5.77;;;;;;;;;;5020450;28;20297;-76
2022/09/13 10:50:34;;;;;;;6.63;5.60;;;;;;;;;;5038085;28;20195;-76
2022/09/13 10:53:02;;;;;;;11.03;5.83;;;;;;;;;;5044107;28;20182;-76
2022/09/13 10:55:33;;;;;;;6.10;5.50;;;;;;;;;;5043477;28;20190;-76
2022/09/13 10:58:01;;;;;;;5.70;5.20;;;;;;;;;;5039143;28;20275;-76
2022/09/13 11:00:39;;;;;;;6.00;4.77;;;;;;;;;;5042944;28;20623;-78
2022/09/13 11:03:05;;;;;;;7.13;5.20;;;;;;;;;;5040157;28;20517;-76
2022/09/13 11:05:36;;;;;;;5.30;4.80;;;;;;;;;;5037920;28;20625;-76
2022/09/13 11:08:10;;;;;;;5.50;5.00;;;;;;;;;;5041080;28;20236;-75
2022/09/13 11:10:36;;;;;;;9.40;4.80;;;;;;;;;;5036612;28;20183;-77
2022/09/13 11:13:06;;;;;;;5.13;4.40;;;;;;;;;;5006274;28;20194;-76
2022/09/13 11:15:51;;;;;;;4.57;4.10;;;;;;;;;;5041321;28;20192;-76
2022/09/13 11:18:32;;;;;;;11.63;5.13;;;;;;;;;;5039346;28;20214;-78
2022/09/13 11:21:24;;;;;;;5.00;4.23;;;;;;;;;;5019724;28;20262;-79
2022/09/13 11:23:51;;;;;;;4.93;4.53;;;;;;;;;;5037985;28;20186;-83
2022/09/13 11:26:29;;;;;;;5.83;4.20;;;;;;;;;;5034966;28;20611;-77
2022/09/13 11:29:05;;;;;;;6.20;4.23;;;;;;;;;;5041148;28;20229;-78
2022/09/13 11:31:42;;;;;;;6.53;4.37;;;;;;;;;;5017206;28;20198;-77
2022/09/13 11:34:08;;;;;;;6.73;4.53;;;;;;;;;;5046301;28;20174;-76
2022/09/13 11:36:34;;;;;;;4.93;4.20;;;;;;;;;;5039724;28;20198;-76
2022/09/13 11:39:14;;;;;;;6.50;4.47;;;;;;;;;;5036743;28;20233;-76
2022/09/13 11:41:49;;;;;;;5.60;4.70;;;;;;;;;;5040294;28;20561;-76
2022/09/13 11:44:19;;;;;;;5.33;4.83;;;;;;;;;;5036074;28;20606;-75
2022/09/13 11:46:51;;;;;;;5.17;4.73;;;;;;;;;;5040941;28;20213;-78
2022/09/13 11:49:36;;;;;;;5.67;4.27;;;;;;;;;;5038647;28;20190;-76
2022/09/13 11:52:02;;;;;;;5.23;4.73;;;;;;;;;;5041944;28;20724;-77
2022/09/13 11:54:47;;;;;;;5.40;4.90;;;;;;;;;;5038068;28;20198;-76
2022/09/13 11:57:17;;;;;;;5.57;5.03;;;;;;;;;;5039683;28;20689;-76
2022/09/13 11:59:45;;;;;;;5.47;4.97;;;;;;;;;;5044663;28;20236;-77
2022/09/13 12:02:17;;;;;;;5.93;5.07;;;;;;;;;;5036886;28;20205;-77
2022/09/13 12:04:50;;;;;;;7.53;4.67;;;;;;;;;;5041889;28;20186;-77
2022/09/13 12:07:43;;;;;;;5.77;4.30;;;;;;;;;;5041929;28;20198;-77
2022/09/13 12:10:29;;;;;;;7.80;5.47;;;;;;;;;;5034575;28;20571;-77
2022/09/13 12:12:57;;;;;;;6.80;4.90;;;;;;;;;;5020953;28;20559;-77
2022/09/13 12:15:26;;;;;;;6.23;4.80;;;;;;;;;;5041233;28;20185;-76
2022/09/13 12:17:56;;;;;;;5.70;4.83;;;;;;;;;;5031180;28;20344;-76
2022/09/13 12:20:36;;;;;;;5.30;4.80;;;;;;;;;;5039327;28;20193;-76
2022/09/13 12:23:05;;;;;;;7.10;4.40;;;;;;;;;;5034578;28;20195;-77
2022/09/13 12:25:38;;;;;;;5.43;4.70;;;;;;;;;;5036513;28;20601;-76
2022/09/13 12:28:17;;;;;;;5.57;4.27;;;;;;;;;;5038467;28;20178;-78
2022/09/13 12:30:50;;;;;;;6.37;5.40;;;;;;;;;;5040208;28;21073;-77
2022/09/13 12:33:17;;;;;;;5.57;4.97;;;;;;;;;;5039722;28;20642;-76
2022/09/13 12:35:53;;;;;;;6.10;3.97;;;;;;;;;;5039745;28;20210;-77
2022/09/13 12:38:31;;;;;;;4.80;4.23;;;;;;;;;;5037950;28;20752;-76
2022/09/13 12:41:02;;;;;;;6.73;4.40;;;;;;;;;;5038995;28;20277;-78
2022/09/13 12:43:39;;;;;;;4.47;4.03;;;;;;;;;;5043325;28;20178;-77
2022/09/13 12:46:21;;;;;;;4.27;3.57;;;;;;;;;;5037966;28;20618;-79
2022/09/13 12:49:06;;;;;;;4.03;3.63;;;;;;;;;;5024588;28;20191;-78
2022/09/13 12:51:45;;;;;;;4.30;3.90;;;;;;;;;;5044340;28;20186;-77
2022/09/13 12:54:28;;;;;;;4.87;4.07;;;;;;;;;;5044705;28;20181;-78
2022/09/13 12:56:54;;;;;;;5.10;4.23;;;;;;;;;;5041281;28;20206;-78
2022/09/13 12:59:39;;;;;;;4.57;3.70;;;;;;;;;;5006135;28;20214;-78
2022/09/13 13:02:23;;;;;;;4.43;4.03;;;;;;;;;;5041666;28;20265;-78
2022/09/13 13:04:53;;;;;;;4.50;3.70;;;;;;;;;;5044929;28;20210;-77
2022/09/13 13:07:21;;;;;;;3.90;3.53;;;;;;;;;;5045081;28;20206;-86
2022/09/13 13:09:49;;;;;;;4.20;3.70;;;;;;;;;;5031184;28;20284;-82
2022/09/13 13:12:39;;;;;;;5.17;3.73;;;;;;;;;;5045417;28;20201;-84
2022/09/13 13:15:06;;;;;;;4.13;3.80;;;;;;;;;;5024060;28;20682;-83
2022/09/13 13:17:38;;;;;;;5.00;4.37;;;;;;;;;;5047551;28;20245;-83
2022/09/13 13:20:23;;;;;;;4.93;4.43;;;;;;;;;;5041379;28;20188;-83
2022/09/13 13:22:51;;;;;;;7.07;4.50;;;;;;;;;;5046359;28;20191;-83
2022/09/13 13:25:37;;;;;;;4.77;3.97;;;;;;;;;;5049568;28;20543;-83
2022/09/13 13:28:29;;;;;;;6.67;4.27;;;;;;;;;;5044849;28;20192;-81
2022/09/13 13:30:56;;;;;;;4.33;3.43;;;;;;;;;;5040833;28;20205;-80
2022/09/13 13:33:25;;;;;;;4.23;3.50;;;;;;;;;;5046936;28;20280;-80
2022/09/13 13:35:52;;;;;;;3.90;3.60;;;;;;;;;;5040148;28;20213;-80
2022/09/13 13:38:38;;;;;;;6.70;3.73;;;;;;;;;;5047238;28;20209;-79
2022/09/13 13:41:05;;;;;;;4.07;3.70;;;;;;;;;;5034192;28;20178;-80
2022/09/13 13:43:34;;;;;;;7.80;4.47;;;;;;;;;;5039257;28;20597;-80
2022/09/13 13:46:10;;;;;;;9.30;4.20;;;;;;;;;;5043938;28;20692;-80
2022/09/13 13:48:37;;;;;;;5.17;4.40;;;;;;;;;;5039199;28;20193;-80
2022/09/13 13:51:17;;;;;;;6.40;3.90;;;;;;;;;;5046327;28;20178;-80
2022/09/13 13:53:55;;;;;;;7.10;4.63;;;;;;;;;;5040162;28;20189;-80
2022/09/13 13:56:24;;;;;;;4.90;4.50;;;;;;;;;;5047920;28;20212;-79
2022/09/13 13:58:56;;;;;;;5.40;4.20;;;;;;;;;;5033573;28;20209;-79
2022/09/13 14:01:24;;;;;;;4.50;4.10;;;;;;;;;;5040137;28;20181;-80
2022/09/13 14:03:58;;;;;;;5.23;4.63;;;;;;;;;;5038171;28;20181;-79
2022/09/13 14:06:35;;;;;;;5.17;4.67;;;;;;;;;;5028378;28;20881;-79
2022/09/13 14:09:11;;;;;;;9.87;4.47;;;;;;;;;;5042893;28;20280;-79
2022/09/13 14:11:38;;;;;;;6.10;4.03;;;;;;;;;;5037748;28;20205;-79
2022/09/13 14:14:22;;;;;;;5.83;4.30;;;;;;;;;;5041032;28;20198;-79
2022/09/13 14:16:49;;;;;;;4.43;4.00;;;;;;;;;;5046269;28;20237;-77
2022/09/13 14:19:27;;;;;;;5.20;4.57;;;;;;;;;;5045586;28;20218;-77
2022/09/13 14:22:05;;;;;;;4.70;3.90;;;;;;;;;;5036780;28;20657;-78
2022/09/13 14:24:36;;;;;;;5.80;4.37;;;;;;;;;;5046357;28;20193;-78
2022/09/13 14:27:02;;;;;;;7.17;4.37;;;;;;;;;;5071410;23;20321;-78
2022/09/13 14:29:28;;;;;;;4.90;4.40;;;;;;;;;;5049398;28;20548;-80
2022/09/13 14:32:03;;;;;;;5.93;4.93;;;;;;;;;;5057091;28;20215;-79
2022/09/13 14:34:31;;;;;;;5.03;4.63;;;;;;;;;;5028281;28;20207;-79
2022/09/13 14:36:59;;;;;;;5.03;4.57;;;;;;;;;;5034553;28;20194;-80
2022/09/13 14:39:26;;;;;;;5.40;4.90;;;;;;;;;;5033093;28;20211;-80
2022/09/13 14:42:06;;;;;;;7.40;4.87;;;;;;;;;;5033511;28;20200;-80
2022/09/13 14:44:33;;;;;;;4.90;4.50;;;;;;;;;;5024321;28;20189;-79
2022/09/13 14:47:14;;;;;;;5.30;4.80;;;;;;;;;;5038143;28;20225;-80
2022/09/13 14:49:42;;;;;;;6.03;4.57;;;;;;;;;;5026310;28;20699;-80
2022/09/13 14:52:14;;;;;;;6.00;4.87;;;;;;;;;;5049301;28;20823;-80
2022/09/13 14:54:47;;;;;;;5.53;4.97;;;;;;;;;;5031550;28;20193;-82
2022/09/13 14:57:40;;;;;;;7.23;5.10;;;;;;;;;;5037737;28;20193;-79
2022/09/13 15:00:15;;;;;;;6.27;4.97;;;;;;;;;;5029181;28;20190;-78
2022/09/13 15:02:45;;;;;;;5.10;4.60;;;;;;;;;;5038840;28;20221;-80
2022/09/13 15:05:18;;;;;;;5.57;4.20;;;;;;;;;;5042328;28;20203;-80
2022/09/13 15:07:44;;;;;;;5.07;4.57;;;;;;;;;;5035454;28;20284;-80
2022/09/13 15:10:16;;;;;;;4.73;4.30;;;;;;;;;;5032030;28;20796;-79